Latest Weather Observations for Carters Bore

IDQ60801

Issued at 10:02 pm EST Sunday 25 September 2016 (issued every 30 minutes, with the page automatically refreshed every 10 minutes)

About weather observations | Map of weather stations | Latest weather observations for QLD | Other Formats
Station Details ID: 037053 Name: CARTERS BORE Lat: -20.94 Lon: 139.30 Height: 396.0 m
Data from the previous 72 hours. | See also: Recent months at Carters Bore
Date/Time
EST
Temp
°C
App
Temp
°C
Dew
Point
°C
Rel
Hum
%
Delta-T
°C
Wind Press
QNH
hPa
Press
MSL
hPa
Rain since
9am
mm
Dir  Spd
km/h
Gust
km/h
Spd
kts
Gust
kts
25/10:00pm 22.5 19.5 5.9 34 8.5 SE 11 19 6 10 - - 0.0
25/09:30pm 23.1 19.7 6.0 33 8.9 SE 13 20 7 11 - - 0.0
25/09:00pm 23.4 20.0 5.8 32 9.1 SE 13 20 7 11 - - 0.0
25/08:30pm 24.0 20.1 5.4 30 9.6 SE 15 22 8 12 - - 0.0
25/08:00pm 24.1 21.8 7.3 34 9.0 SE 9 15 5 8 - - 0.0
25/07:30pm 24.6 22.3 7.3 33 9.2 SE 9 13 5 7 - - 0.0
25/07:00pm 25.2 23.0 7.8 33 9.4 SE 9 15 5 8 - - 0.0
25/06:30pm 26.1 23.1 7.7 31 10.0 SSE 13 19 7 10 - - 0.0
25/06:00pm 26.9 23.9 7.9 30 10.4 SE 13 20 7 11 - - 0.0
25/05:30pm 27.4 24.7 8.8 31 10.4 SE 13 20 7 11 - - 0.0
25/05:00pm 27.4 24.0 7.8 29 10.7 ESE 15 22 8 12 - - 0.0
25/04:30pm 27.8 24.6 8.6 30 10.7 SSE 15 26 8 14 - - 0.0
25/04:00pm 27.9 25.3 9.2 31 10.5 SE 13 19 7 10 - - 0.0
25/03:30pm 27.4 24.0 9.3 32 10.2 SE 17 24 9 13 - - 0.0
25/03:00pm 27.6 25.3 10.3 34 9.9 SE 13 20 7 11 - - 0.0
25/02:30pm 27.8 25.4 10.1 33 10.1 SE 13 20 7 11 - - 0.0
25/02:00pm 27.2 23.9 9.5 33 10.0 SSE 17 26 9 14 - - 0.0
25/01:30pm 27.2 24.2 10.8 36 9.4 SE 17 26 9 14 - - 0.0
25/01:00pm 27.3 24.5 11.3 37 9.3 SE 17 26 9 14 - - 0.0
25/12:30pm 26.6 23.6 10.7 37 9.1 SE 17 28 9 15 - - 0.0
25/12:00pm 26.1 22.6 10.3 37 9.0 SSE 19 28 10 15 - - 0.0
25/11:30am 24.8 21.8 10.7 41 8.0 ESE 17 26 9 14 - - 0.0
25/11:00am 23.8 20.3 10.1 42 7.7 SE 19 30 10 16 - - 0.0
25/10:30am 23.9 20.2 9.5 40 8.0 ESE 19 28 10 15 - - 0.0
25/10:00am 23.7 19.9 8.9 39 8.1 SE 19 32 10 17 - - 0.0
25/09:30am 22.1 17.8 9.3 44 7.0 SE 22 32 12 17 - - 0.0
25/09:00am 21.6 17.7 8.8 44 6.9 SE 19 35 10 19 - - 0.0
25/08:30am 21.4 18.0 9.3 46 6.6 SE 17 28 9 15 - - 0.0
25/08:00am 20.9 17.1 9.2 47 6.3 SE 19 28 10 15 - - 0.0
25/07:30am 20.7 17.1 9.9 50 5.9 SSE 19 28 10 15 - - 0.0
25/07:00am 20.1 17.8 11.6 58 4.8 SE 15 24 8 13 - - 0.0
25/06:30am 19.6 18.4 12.8 65 3.9 SE 11 20 6 11 - - 0.0
25/06:00am 19.8 18.0 13.3 66 3.8 SSE 15 24 8 13 - - 0.0
25/05:30am 19.8 18.6 14.0 69 3.4 SSE 13 19 7 10 - - 0.0
25/05:00am 19.8 18.4 14.4 71 3.2 SE 15 20 8 11 - - 0.0
25/04:30am 19.8 19.1 14.4 71 3.2 SSE 11 17 6 9 - - 0.0
25/04:00am 20.1 19.4 14.2 69 3.5 SE 11 17 6 9 - - 0.0
25/03:30am 20.3 20.2 14.0 67 3.7 SE 7 13 4 7 - - 0.0
25/03:00am 20.4 19.5 13.8 66 3.9 SE 11 17 6 9 - - 0.0
25/02:30am 20.6 19.3 13.8 65 4.0 SE 13 22 7 12 - - 0.0
25/02:00am 21.0 18.8 13.4 62 4.4 SE 17 24 9 13 - - 0.0
25/01:30am 21.6 19.8 13.2 59 4.9 SSE 15 20 8 11 - - 0.0
25/01:00am 21.4 19.8 12.8 58 5.0 SSE 13 22 7 12 - - 0.0
25/12:30am 22.0 19.2 12.5 54 5.5 SSE 19 32 10 17 - - 0.0
25/12:00am 22.3 19.1 13.1 56 5.4 SSE 22 30 12 16 - - 0.0
 
Date/Time
EST
Temp
°C
App
Temp
°C
Dew
Point
°C
Rel
Hum
%
Delta-T
°C
Wind Press
QNH
hPa
Press
MSL
hPa
Rain since
9am
mm
Dir  Spd
km/h
Gust
km/h
Spd
kts
Gust
kts
24/11:30pm 23.6 20.4 13.2 52 6.1 S 22 32 12 17 - - 0.0
24/11:00pm 24.1 23.1 12.4 48 6.8 ENE 9 11 5 6 - - 0.0
24/10:30pm 24.5 23.8 13.1 49 6.7 ENE 9 9 5 5 - - 0.0
24/10:00pm 24.3 24.0 12.6 48 6.8 ENE 6 6 3 3 - - 0.0
24/09:30pm 25.3 24.2 11.8 43 7.8 ENE 9 9 5 5 - - 0.0
24/09:00pm 25.7 24.8 11.5 41 8.2 ENE 7 9 4 5 - - 0.0
24/08:30pm 25.6 24.9 12.1 43 7.9 ENE 7 7 4 4 - - 0.0
24/08:00pm 25.5 26.5 14.3 50 6.8 N 2 4 1 2 - - 0.0
24/07:30pm 26.5 27.5 14.3 47 7.4 NW 2 4 1 2 - - 0.0
24/07:00pm 29.0 28.1 10.6 32 10.6 NW 6 6 3 3 - - 0.0
24/06:30pm 30.6 28.7 8.9 26 12.3 WNW 9 15 5 8 - - 0.0
24/06:00pm 32.2 29.7 8.4 23 13.5 W 11 17 6 9 - - 0.0
24/05:30pm 32.9 30.6 9.0 23 13.7 W 11 20 6 11 - - 0.0
24/05:00pm 33.1 30.0 7.1 20 14.5 NW 13 20 7 11 - - 0.0
24/04:30pm 33.3 30.8 8.0 21 14.3 W 11 20 6 11 - - 0.0
24/04:00pm 32.8 29.1 6.2 19 14.6 WNW 15 22 8 12 - - 0.0
24/03:30pm 33.2 30.1 7.2 20 14.5 NW 13 22 7 12 - - 0.0
24/03:00pm 33.2 30.1 7.2 20 14.5 WNW 13 20 7 11 - - 0.0
24/02:30pm 33.2 29.7 7.2 20 14.5 NW 15 22 8 12 - - 0.0
24/02:00pm 32.3 29.2 5.7 19 14.4 NW 11 22 6 12 - - 0.0
24/01:30pm 32.6 29.9 7.4 21 14.1 NNW 11 19 6 10 - - 0.0
24/01:00pm 32.0 28.9 5.5 19 14.3 NNE 11 19 6 10 - - 0.0
24/12:30pm 31.1 27.3 4.0 18 14.2 N 13 19 7 10 - - 0.0
24/12:00pm 30.8 27.4 3.8 18 14.1 NNE 11 19 6 10 - - 0.0
24/11:30am 29.5 25.2 3.5 19 13.4 N 15 20 8 11 - - 0.0
24/11:00am 28.7 25.5 6.7 25 11.9 N 13 20 7 11 - - 0.0
24/10:30am 27.6 24.0 5.2 24 11.7 N 13 19 7 10 - - 0.0
24/10:00am 26.5 22.0 4.3 24 11.4 N 17 24 9 13 - - 0.0
24/09:30am 25.4 20.7 5.1 27 10.5 NNE 19 26 10 14 - - 0.0
24/09:00am 24.2 20.0 5.5 30 9.7 NNE 17 24 9 13 - - 0.0
24/08:30am 22.9 19.9 5.8 33 8.8 NNE 11 19 6 10 - - 0.0
24/08:00am 21.1 18.6 6.6 39 7.5 NNE 9 13 5 7 - - 0.0
24/07:30am 19.8 17.8 7.2 44 6.5 NE 7 11 4 6 - - 0.0
24/07:00am 17.6 16.0 7.9 53 5.0 NNE 6 9 3 5 - - 0.0
24/06:30am 17.1 15.3 7.2 52 5.0 NNE 6 9 3 5 - - 0.0
24/06:00am 17.3 15.0 7.6 53 5.0 NNE 9 11 5 6 - - 0.0
24/05:30am 15.2 14.2 8.9 66 3.3 NNE 4 6 2 3 - - 0.0
24/05:00am 15.3 14.0 10.1 71 2.8 NE 7 7 4 4 - - 0.0
24/04:30am 14.6 14.8 10.4 76 2.2 CALM 0 4 0 2 - - 0.0
24/04:00am 14.7 14.7 9.7 72 2.6 CALM 0 0 0 0 - - 0.0
24/03:30am 15.8 15.5 8.5 62 3.8 CALM 0 0 0 0 - - 0.0
24/03:00am 16.4 16.1 8.6 60 4.1 CALM 0 2 0 1 - - 0.0
24/02:30am 17.2 15.2 7.3 52 5.1 ENE 7 11 4 6 - - 0.0
24/02:00am 17.6 15.6 7.1 50 5.4 NNE 7 9 4 5 - - 0.0
24/01:30am 17.3 15.6 7.6 53 5.0 NNE 6 7 3 4 - - 0.0
24/01:00am 18.5 16.6 7.6 49 5.6 NNE 7 9 4 5 - - 0.0
24/12:30am 17.9 16.1 7.9 52 5.2 N 7 9 4 5 - - 0.0
24/12:00am 17.5 16.1 8.9 57 4.5 NNE 6 9 3 5 - - 0.0
 
Date/Time
EST
Temp
°C
App
Temp
°C
Dew
Point
°C
Rel
Hum
%
Delta-T
°C
Wind Press
QNH
hPa
Press
MSL
hPa
Rain since
9am
mm
Dir  Spd
km/h
Gust
km/h
Spd
kts
Gust
kts
23/11:30pm 17.9 16.8 8.5 54 4.9 NE 4 6 2 3 - - 0.0
23/11:00pm 18.1 16.7 8.7 54 5.0 NE 6 7 3 4 - - 0.0
23/10:30pm 18.8 17.4 8.7 52 5.4 NE 6 7 3 4 - - 0.0
23/10:00pm 19.3 17.5 8.0 48 5.9 ENE 7 9 4 5 - - 0.0
23/09:30pm 19.1 17.0 8.1 49 5.8 ENE 9 13 5 7 - - 0.0
23/09:00pm 19.8 18.2 7.9 46 6.3 ENE 6 7 3 4 - - 0.0
23/08:30pm 20.0 18.4 8.0 46 6.3 ENE 6 6 3 3 - - 0.0
23/08:00pm 20.4 18.5 7.4 43 6.8 ENE 7 7 4 4 - - 0.0
23/07:30pm 21.0 19.3 7.6 42 7.1 ESE 6 6 3 3 - - 0.0
23/07:00pm 22.2 20.8 7.2 38 7.9 SE 4 6 2 3 - - 0.0
23/06:30pm 24.3 22.0 2.5 24 10.7 SSE 4 6 2 3 - - 0.0
23/06:00pm 25.7 22.4 0.4 19 12.0 S 7 11 4 6 - - 0.0
23/05:30pm 26.0 22.4 0.6 19 12.1 S 9 13 5 7 - - 0.0
23/05:00pm 26.3 22.9 -0.7 17 12.6 SSW 7 13 4 7 - - 0.0
23/04:30pm 26.5 24.0 -1.3 16 12.9 WSW 2 9 1 5 - - 0.0
23/04:00pm 26.0 22.7 -0.1 18 12.3 S 7 13 4 7 - - 0.0
23/03:30pm 26.2 23.6 0.8 19 12.2 SSW 4 9 2 5 - - 0.0
23/03:00pm 25.8 23.6 3.1 23 11.3 S 4 9 2 5 - - 0.0
23/02:30pm 25.6 22.9 2.9 23 11.3 SSE 6 11 3 6 - - 0.0
23/02:00pm 25.0 23.0 4.2 26 10.5 SW 4 7 2 4 - - 0.0
23/01:30pm 24.2 21.7 3.5 26 10.3 S 6 9 3 5 - - 0.0
23/01:00pm 23.8 21.0 3.2 26 10.2 S 7 11 4 6 - - 0.0
23/12:30pm 23.0 20.4 3.0 27 9.8 S 6 9 3 5 - - 0.0
23/12:00pm 22.1 19.7 4.2 31 8.9 S 6 9 3 5 - - 0.0
23/11:30am 22.1 19.8 4.7 32 8.7 SE 6 13 3 7 - - 0.0
23/11:00am 20.7 18.0 3.9 33 8.2 SE 7 11 4 6 - - 0.0
23/10:30am 20.3 17.9 4.4 35 7.8 E 6 13 3 7 - - 0.0
23/10:00am 19.4 16.6 5.1 39 7.1 SE 9 13 5 7 - - 0.0
23/09:30am 18.7 15.8 6.5 45 6.2 ESE 11 19 6 10 - - 0.0
23/09:00am 17.8 14.4 6.0 46 5.9 ESE 13 20 7 11 - - 0.0
23/08:30am 17.0 13.9 7.1 52 5.0 ESE 13 24 7 13 - - 0.0
23/08:00am 15.4 12.2 6.9 57 4.3 E 13 19 7 10 - - 0.0
23/07:30am 14.5 12.5 7.1 61 3.7 E 7 15 4 8 - - 0.0
23/07:00am 13.9 11.5 7.0 63 3.4 ESE 9 13 5 7 - - 0.0
23/06:30am 11.6 10.3 7.5 76 2.0 ESE 4 6 2 3 - - 0.0
23/06:00am 11.5 9.9 7.8 78 1.8 ESE 6 7 3 4 - - 0.0
23/05:30am 11.4 10.6 8.3 81 1.6 SSE 2 4 1 2 - - 0.0
23/05:00am 11.8 10.6 8.1 78 1.9 SE 4 6 2 3 - - 0.0
23/04:30am 11.4 11.1 8.6 83 1.4 CALM 0 0 0 0 - - 0.0
23/04:00am 11.2 10.9 8.8 85 1.2 CALM 0 0 0 0 - - 0.0
23/03:30am 13.0 11.2 7.9 71 2.6 SSE 7 9 4 5 - - 0.0
23/03:00am 13.2 11.1 8.1 71 2.6 SSE 9 13 5 7 - - 0.0
23/02:30am 13.5 11.8 8.4 71 2.6 SSE 7 11 4 6 - - 0.0
23/02:00am 12.9 11.5 8.8 76 2.1 S 6 7 3 4 - - 0.0
23/01:30am 13.0 12.3 8.7 75 2.2 SSE 2 2 1 1 - - 0.0
23/01:00am 15.0 12.7 7.5 61 3.8 SE 9 13 5 7 - - 0.0
23/12:30am 15.1 13.3 7.9 62 3.7 SE 7 11 4 6 - - 0.0
23/12:00am 15.7 13.0 7.5 58 4.2 SE 11 17 6 9 - - 0.0
 
Date/Time
EST
Temp
°C
App
Temp
°C
Dew
Point
°C
Rel
Hum
%
Delta-T
°C
Wind Press
QNH
hPa
Press
MSL
hPa
Rain since
9am
mm
Dir  Spd
km/h
Gust
km/h
Spd
kts
Gust
kts
22/11:30pm 15.8 13.5 7.6 58 4.2 SE 9 13 5 7 - - 0.0
22/11:00pm 16.1 13.9 7.8 58 4.3 SE 9 15 5 8 - - 0.0
22/10:30pm 16.4 14.3 8.1 58 4.3 SE 9 15 5 8 - - 0.0

Other Formats:

Comma delimited format used in spreadsheet applications
http://www.bom.gov.au/fwo/IDQ60801/IDQ60801.94347.axf

JavaScript Object Notation format (JSON) in row-major order
http://www.bom.gov.au/fwo/IDQ60801/IDQ60801.94347.json